sensor_id;sensor_type;location;lat;lon;timestamp;P1;durP1;ratioP1;P2;durP2;ratioP2
25091;SDS011;13082;52.374;4.946;2023-01-04T00:01:14;5.83;;;3.83;;
25091;SDS011;13082;52.374;4.946;2023-01-04T00:03:42;7.63;;;4.10;;
25091;SDS011;13082;52.374;4.946;2023-01-04T00:06:10;6.03;;;4.30;;
25091;SDS011;13082;52.374;4.946;2023-01-04T00:08:38;3.50;;;3.20;;
25091;SDS011;13082;52.374;4.946;2023-01-04T00:11:05;4.40;;;3.50;;
25091;SDS011;13082;52.374;4.946;2023-01-04T00:13:36;7.07;;;3.73;;
25091;SDS011;13082;52.374;4.946;2023-01-04T00:16:06;10.13;;;4.57;;
25091;SDS011;13082;52.374;4.946;2023-01-04T00:18:34;8.07;;;4.00;;
25091;SDS011;13082;52.374;4.946;2023-01-04T00:23:47;6.10;;;4.27;;
25091;SDS011;13082;52.374;4.946;2023-01-04T00:26:21;3.73;;;3.37;;
25091;SDS011;13082;52.374;4.946;2023-01-04T00:28:55;5.93;;;3.63;;
25091;SDS011;13082;52.374;4.946;2023-01-04T00:31:22;5.27;;;4.03;;
25091;SDS011;13082;52.374;4.946;2023-01-04T00:33:49;4.03;;;3.63;;
25091;SDS011;13082;52.374;4.946;2023-01-04T00:36:17;4.40;;;3.10;;
25091;SDS011;13082;52.374;4.946;2023-01-04T00:38:42;4.23;;;3.60;;
25091;SDS011;13082;52.374;4.946;2023-01-04T00:41:09;3.63;;;3.33;;
25091;SDS011;13082;52.374;4.946;2023-01-04T00:43:35;5.63;;;3.60;;
25091;SDS011;13082;52.374;4.946;2023-01-04T00:46:01;3.57;;;3.20;;
25091;SDS011;13082;52.374;4.946;2023-01-04T00:48:27;3.60;;;3.30;;
25091;SDS011;13082;52.374;4.946;2023-01-04T00:50:53;3.77;;;3.47;;
25091;SDS011;13082;52.374;4.946;2023-01-04T00:53:19;3.80;;;3.30;;
25091;SDS011;13082;52.374;4.946;2023-01-04T00:55:45;6.03;;;4.27;;
25091;SDS011;13082;52.374;4.946;2023-01-04T00:58:10;3.70;;;3.40;;
25091;SDS011;13082;52.374;4.946;2023-01-04T01:00:36;4.37;;;3.50;;
25091;SDS011;13082;52.374;4.946;2023-01-04T01:03:02;3.70;;;3.40;;
25091;SDS011;13082;52.374;4.946;2023-01-04T01:05:28;4.07;;;3.67;;
25091;SDS011;13082;52.374;4.946;2023-01-04T01:07:53;6.03;;;3.40;;
25091;SDS011;13082;52.374;4.946;2023-01-04T01:10:19;3.37;;;3.13;;
25091;SDS011;13082;52.374;4.946;2023-01-04T01:12:45;3.00;;;2.77;;
25091;SDS011;13082;52.374;4.946;2023-01-04T01:15:11;3.17;;;2.97;;
25091;SDS011;13082;52.374;4.946;2023-01-04T01:17:36;4.93;;;3.13;;
25091;SDS011;13082;52.374;4.946;2023-01-04T01:20:02;3.07;;;2.70;;
25091;SDS011;13082;52.374;4.946;2023-01-04T01:22:29;2.83;;;2.63;;
25091;SDS011;13082;52.374;4.946;2023-01-04T01:24:56;7.73;;;2.87;;
25091;SDS011;13082;52.374;4.946;2023-01-04T01:27:21;2.50;;;2.30;;
25091;SDS011;13082;52.374;4.946;2023-01-04T01:29:47;2.43;;;2.23;;
25091;SDS011;13082;52.374;4.946;2023-01-04T01:32:13;2.43;;;2.23;;
25091;SDS011;13082;52.374;4.946;2023-01-04T01:34:38;3.77;;;2.73;;
25091;SDS011;13082;52.374;4.946;2023-01-04T01:37:04;3.90;;;2.60;;
25091;SDS011;13082;52.374;4.946;2023-01-04T01:39:30;3.33;;;2.70;;
25091;SDS011;13082;52.374;4.946;2023-01-04T01:41:55;4.50;;;2.50;;
25091;SDS011;13082;52.374;4.946;2023-01-04T01:47:06;4.20;;;3.53;;
25091;SDS011;13082;52.374;4.946;2023-01-04T01:49:45;3.70;;;3.40;;
25091;SDS011;13082;52.374;4.946;2023-01-04T01:52:15;5.93;;;3.07;;
25091;SDS011;13082;52.374;4.946;2023-01-04T01:54:46;5.10;;;3.77;;
25091;SDS011;13082;52.374;4.946;2023-01-04T01:57:17;4.30;;;3.57;;
25091;SDS011;13082;52.374;4.946;2023-01-04T01:59:45;5.47;;;4.83;;
25091;SDS011;13082;52.374;4.946;2023-01-04T02:02:14;5.23;;;3.70;;
25091;SDS011;13082;52.374;4.946;2023-01-04T02:04:40;5.33;;;3.70;;
25091;SDS011;13082;52.374;4.946;2023-01-04T02:07:10;6.70;;;4.23;;
25091;SDS011;13082;52.374;4.946;2023-01-04T02:09:43;5.70;;;4.83;;
25091;SDS011;13082;52.374;4.946;2023-01-04T02:12:11;5.43;;;4.33;;
25091;SDS011;13082;52.374;4.946;2023-01-04T02:14:38;5.10;;;4.60;;
25091;SDS011;13082;52.374;4.946;2023-01-04T02:17:10;5.47;;;4.97;;
25091;SDS011;13082;52.374;4.946;2023-01-04T02:36:52;8.40;;;6.17;;
25091;SDS011;13082;52.374;4.946;2023-01-04T02:44:58;8.77;;;6.10;;
25091;SDS011;13082;52.374;4.946;2023-01-04T02:47:29;7.27;;;6.57;;
25091;SDS011;13082;52.374;4.946;2023-01-04T02:50:32;9.70;;;5.87;;
25091;SDS011;13082;52.374;4.946;2023-01-04T02:55:55;7.73;;;6.13;;
25091;SDS011;13082;52.374;4.946;2023-01-04T03:01:50;9.33;;;6.30;;
25091;SDS011;13082;52.374;4.946;2023-01-04T03:13:28;5.67;;;4.83;;
25091;SDS011;13082;52.374;4.946;2023-01-04T03:16:04;4.97;;;4.50;;
25091;SDS011;13082;52.374;4.946;2023-01-04T03:18:35;5.10;;;4.60;;
25091;SDS011;13082;52.374;4.946;2023-01-04T03:21:06;5.80;;;4.53;;
25091;SDS011;13082;52.374;4.946;2023-01-04T03:23:34;6.17;;;4.80;;
25091;SDS011;13082;52.374;4.946;2023-01-04T03:26:54;5.23;;;4.43;;
25091;SDS011;13082;52.374;4.946;2023-01-04T03:29:36;5.00;;;4.60;;
25091;SDS011;13082;52.374;4.946;2023-01-04T03:32:45;6.13;;;4.87;;
25091;SDS011;13082;52.374;4.946;2023-01-04T03:35:49;5.07;;;4.67;;
25091;SDS011;13082;52.374;4.946;2023-01-04T03:38:32;5.50;;;4.83;;
25091;SDS011;13082;52.374;4.946;2023-01-04T03:41:29;5.30;;;4.80;;
25091;SDS011;13082;52.374;4.946;2023-01-04T03:47:40;5.20;;;4.70;;
25091;SDS011;13082;52.374;4.946;2023-01-04T03:50:33;5.27;;;4.70;;
25091;SDS011;13082;52.374;4.946;2023-01-04T03:53:04;5.57;;;5.07;;
25091;SDS011;13082;52.374;4.946;2023-01-04T03:55:30;8.53;;;4.93;;
25091;SDS011;13082;52.374;4.946;2023-01-04T03:57:59;5.87;;;5.00;;
25091;SDS011;13082;52.374;4.946;2023-01-04T04:00:24;5.63;;;4.87;;
25091;SDS011;13082;52.374;4.946;2023-01-04T04:02:51;6.37;;;4.80;;
25091;SDS011;13082;52.374;4.946;2023-01-04T04:05:18;4.97;;;4.50;;
25091;SDS011;13082;52.374;4.946;2023-01-04T04:08:05;5.10;;;4.60;;
25091;SDS011;13082;52.374;4.946;2023-01-04T04:10:53;5.63;;;4.97;;
25091;SDS011;13082;52.374;4.946;2023-01-04T04:13:21;5.40;;;4.90;;
25091;SDS011;13082;52.374;4.946;2023-01-04T04:15:48;5.47;;;4.97;;
25091;SDS011;13082;52.374;4.946;2023-01-04T04:18:15;5.10;;;4.60;;
25091;SDS011;13082;52.374;4.946;2023-01-04T04:20:41;5.03;;;4.53;;
25091;SDS011;13082;52.374;4.946;2023-01-04T04:23:07;5.17;;;4.57;;
25091;SDS011;13082;52.374;4.946;2023-01-04T04:25:32;5.60;;;5.10;;
25091;SDS011;13082;52.374;4.946;2023-01-04T04:27:58;6.47;;;5.60;;
25091;SDS011;13082;52.374;4.946;2023-01-04T04:30:23;7.40;;;5.43;;
25091;SDS011;13082;52.374;4.946;2023-01-04T04:32:49;7.13;;;4.83;;
25091;SDS011;13082;52.374;4.946;2023-01-04T04:35:15;4.77;;;4.23;;
25091;SDS011;13082;52.374;4.946;2023-01-04T04:37:40;6.70;;;5.13;;
25091;SDS011;13082;52.374;4.946;2023-01-04T04:40:06;9.43;;;5.80;;
25091;SDS011;13082;52.374;4.946;2023-01-04T04:42:52;10.70;;;5.00;;
25091;SDS011;13082;52.374;4.946;2023-01-04T04:45:18;7.10;;;4.13;;
25091;SDS011;13082;52.374;4.946;2023-01-04T04:47:43;7.83;;;4.17;;
25091;SDS011;13082;52.374;4.946;2023-01-04T04:50:09;9.87;;;4.10;;
25091;SDS011;13082;52.374;4.946;2023-01-04T04:52:34;8.17;;;3.97;;
25091;SDS011;13082;52.374;4.946;2023-01-04T04:55:00;4.83;;;3.80;;
25091;SDS011;13082;52.374;4.946;2023-01-04T04:57:25;7.10;;;4.00;;
25091;SDS011;13082;52.374;4.946;2023-01-04T04:59:51;6.03;;;3.17;;
25091;SDS011;13082;52.374;4.946;2023-01-04T05:02:16;12.03;;;3.93;;
25091;SDS011;13082;52.374;4.946;2023-01-04T05:04:42;7.30;;;2.87;;
25091;SDS011;13082;52.374;4.946;2023-01-04T05:07:08;6.27;;;2.17;;
25091;SDS011;13082;52.374;4.946;2023-01-04T05:09:33;6.10;;;2.37;;
25091;SDS011;13082;52.374;4.946;2023-01-04T05:11:59;2.73;;;2.27;;
25091;SDS011;13082;52.374;4.946;2023-01-04T05:14:43;4.83;;;2.27;;
25091;SDS011;13082;52.374;4.946;2023-01-04T05:17:08;4.87;;;2.80;;
25091;SDS011;13082;52.374;4.946;2023-01-04T05:19:34;4.93;;;2.27;;
25091;SDS011;13082;52.374;4.946;2023-01-04T05:22:00;2.30;;;2.10;;
25091;SDS011;13082;52.374;4.946;2023-01-04T05:24:25;3.87;;;2.13;;
25091;SDS011;13082;52.374;4.946;2023-01-04T05:26:51;4.90;;;2.40;;
25091;SDS011;13082;52.374;4.946;2023-01-04T05:29:16;3.50;;;2.67;;
25091;SDS011;13082;52.374;4.946;2023-01-04T05:32:00;2.20;;;2.00;;
25091;SDS011;13082;52.374;4.946;2023-01-04T05:34:26;7.27;;;2.60;;
25091;SDS011;13082;52.374;4.946;2023-01-04T05:36:52;3.03;;;2.17;;
25091;SDS011;13082;52.374;4.946;2023-01-04T05:39:17;2.43;;;1.93;;
25091;SDS011;13082;52.374;4.946;2023-01-04T05:41:43;2.07;;;1.83;;
25091;SDS011;13082;52.374;4.946;2023-01-04T05:44:27;1.97;;;1.77;;
25091;SDS011;13082;52.374;4.946;2023-01-04T05:46:52;1.97;;;1.70;;
25091;SDS011;13082;52.374;4.946;2023-01-04T05:49:18;2.00;;;1.80;;
25091;SDS011;13082;52.374;4.946;2023-01-04T05:51:43;1.83;;;1.73;;
25091;SDS011;13082;52.374;4.946;2023-01-04T05:54:09;1.93;;;1.80;;
25091;SDS011;13082;52.374;4.946;2023-01-04T05:56:35;2.90;;;1.90;;
25091;SDS011;13082;52.374;4.946;2023-01-04T05:59:00;2.20;;;2.00;;
25091;SDS011;13082;52.374;4.946;2023-01-04T06:01:26;2.30;;;2.10;;
25091;SDS011;13082;52.374;4.946;2023-01-04T06:03:51;3.03;;;1.50;;
25091;SDS011;13082;52.374;4.946;2023-01-04T06:06:17;2.60;;;2.00;;
25091;SDS011;13082;52.374;4.946;2023-01-04T06:08:42;2.17;;;1.97;;
25091;SDS011;13082;52.374;4.946;2023-01-04T06:11:08;2.60;;;2.27;;
25091;SDS011;13082;52.374;4.946;2023-01-04T06:13:33;2.30;;;2.00;;
25091;SDS011;13082;52.374;4.946;2023-01-04T06:15:59;3.87;;;2.63;;
25091;SDS011;13082;52.374;4.946;2023-01-04T06:18:25;4.43;;;2.20;;
25091;SDS011;13082;52.374;4.946;2023-01-04T06:20:50;2.60;;;2.40;;
25091;SDS011;13082;52.374;4.946;2023-01-04T06:23:16;7.20;;;2.60;;
25091;SDS011;13082;52.374;4.946;2023-01-04T06:25:41;3.00;;;2.70;;
25091;SDS011;13082;52.374;4.946;2023-01-04T06:28:07;5.70;;;2.73;;
25091;SDS011;13082;52.374;4.946;2023-01-04T06:30:33;7.83;;;2.80;;
25091;SDS011;13082;52.374;4.946;2023-01-04T06:32:59;5.70;;;2.87;;
25091;SDS011;13082;52.374;4.946;2023-01-04T06:35:24;5.47;;;2.80;;
25091;SDS011;13082;52.374;4.946;2023-01-04T06:37:50;3.93;;;3.07;;
25091;SDS011;13082;52.374;4.946;2023-01-04T06:40:15;4.30;;;2.90;;
25091;SDS011;13082;52.374;4.946;2023-01-04T06:42:41;6.47;;;3.20;;
25091;SDS011;13082;52.374;4.946;2023-01-04T06:45:09;5.53;;;2.80;;
25091;SDS011;13082;52.374;4.946;2023-01-04T06:47:36;7.20;;;2.93;;
25091;SDS011;13082;52.374;4.946;2023-01-04T06:50:02;4.33;;;3.00;;
25091;SDS011;13082;52.374;4.946;2023-01-04T06:52:28;5.93;;;2.77;;
25091;SDS011;13082;52.374;4.946;2023-01-04T06:54:54;13.03;;;3.73;;
25091;SDS011;13082;52.374;4.946;2023-01-04T06:57:20;7.50;;;2.50;;
25091;SDS011;13082;52.374;4.946;2023-01-04T06:59:45;5.37;;;1.97;;
25091;SDS011;13082;52.374;4.946;2023-01-04T07:02:15;3.93;;;2.30;;
25091;SDS011;13082;52.374;4.946;2023-01-04T07:04:41;3.23;;;2.20;;
25091;SDS011;13082;52.374;4.946;2023-01-04T07:07:07;5.70;;;2.03;;
25091;SDS011;13082;52.374;4.946;2023-01-04T07:09:33;3.00;;;1.70;;
25091;SDS011;13082;52.374;4.946;2023-01-04T07:11:59;5.70;;;2.50;;
25091;SDS011;13082;52.374;4.946;2023-01-04T07:14:25;7.97;;;2.23;;
25091;SDS011;13082;52.374;4.946;2023-01-04T07:16:51;9.57;;;2.50;;
25091;SDS011;13082;52.374;4.946;2023-01-04T07:19:16;6.83;;;2.13;;
25091;SDS011;13082;52.374;4.946;2023-01-04T07:21:42;5.13;;;2.00;;
25091;SDS011;13082;52.374;4.946;2023-01-04T07:24:08;4.47;;;2.20;;
25091;SDS011;13082;52.374;4.946;2023-01-04T07:26:34;8.27;;;2.63;;
25091;SDS011;13082;52.374;4.946;2023-01-04T07:29:00;7.33;;;2.33;;
25091;SDS011;13082;52.374;4.946;2023-01-04T07:31:44;6.33;;;2.23;;
25091;SDS011;13082;52.374;4.946;2023-01-04T07:34:11;6.43;;;2.07;;
25091;SDS011;13082;52.374;4.946;2023-01-04T07:36:38;9.20;;;2.43;;
25091;SDS011;13082;52.374;4.946;2023-01-04T07:39:04;6.37;;;1.83;;
25091;SDS011;13082;52.374;4.946;2023-01-04T07:41:30;7.47;;;2.10;;
25091;SDS011;13082;52.374;4.946;2023-01-04T07:43:56;4.00;;;1.87;;
25091;SDS011;13082;52.374;4.946;2023-01-04T07:46:22;4.47;;;1.43;;
25091;SDS011;13082;52.374;4.946;2023-01-04T07:48:47;5.73;;;1.47;;
25091;SDS011;13082;52.374;4.946;2023-01-04T07:51:13;5.17;;;1.90;;
25091;SDS011;13082;52.374;4.946;2023-01-04T07:53:38;4.73;;;1.93;;
25091;SDS011;13082;52.374;4.946;2023-01-04T07:56:04;7.60;;;1.73;;
25091;SDS011;13082;52.374;4.946;2023-01-04T07:58:30;7.10;;;1.60;;
25091;SDS011;13082;52.374;4.946;2023-01-04T08:01:04;3.20;;;1.50;;
25091;SDS011;13082;52.374;4.946;2023-01-04T08:03:34;3.93;;;1.57;;
25091;SDS011;13082;52.374;4.946;2023-01-04T08:06:03;3.33;;;1.70;;
25091;SDS011;13082;52.374;4.946;2023-01-04T08:08:30;7.63;;;1.70;;
25091;SDS011;13082;52.374;4.946;2023-01-04T08:10:59;4.93;;;1.40;;
25091;SDS011;13082;52.374;4.946;2023-01-04T08:13:25;5.30;;;1.70;;
25091;SDS011;13082;52.374;4.946;2023-01-04T08:15:51;3.47;;;1.27;;
25091;SDS011;13082;52.374;4.946;2023-01-04T08:18:17;9.43;;;2.20;;
25091;SDS011;13082;52.374;4.946;2023-01-04T08:20:43;3.67;;;1.60;;
25091;SDS011;13082;52.374;4.946;2023-01-04T08:23:08;3.13;;;1.43;;
25091;SDS011;13082;52.374;4.946;2023-01-04T08:25:35;1.97;;;1.57;;
25091;SDS011;13082;52.374;4.946;2023-01-04T08:28:00;1.60;;;1.30;;
25091;SDS011;13082;52.374;4.946;2023-01-04T08:30:26;5.07;;;1.47;;
25091;SDS011;13082;52.374;4.946;2023-01-04T08:32:52;3.67;;;1.73;;
25091;SDS011;13082;52.374;4.946;2023-01-04T08:35:18;3.57;;;1.50;;
25091;SDS011;13082;52.374;4.946;2023-01-04T08:37:44;7.10;;;1.57;;
25091;SDS011;13082;52.374;4.946;2023-01-04T08:40:09;5.73;;;1.40;;
25091;SDS011;13082;52.374;4.946;2023-01-04T08:42:35;7.67;;;1.90;;
25091;SDS011;13082;52.374;4.946;2023-01-04T08:45:01;8.57;;;2.70;;
25091;SDS011;13082;52.374;4.946;2023-01-04T08:47:28;7.93;;;2.00;;
25091;SDS011;13082;52.374;4.946;2023-01-04T08:49:54;8.73;;;2.10;;
25091;SDS011;13082;52.374;4.946;2023-01-04T08:52:20;5.47;;;1.63;;
25091;SDS011;13082;52.374;4.946;2023-01-04T08:54:46;7.00;;;2.17;;
25091;SDS011;13082;52.374;4.946;2023-01-04T08:57:13;5.40;;;2.13;;
25091;SDS011;13082;52.374;4.946;2023-01-04T08:59:39;4.40;;;1.63;;
25091;SDS011;13082;52.374;4.946;2023-01-04T09:04:45;11.30;;;2.33;;
25091;SDS011;13082;52.374;4.946;2023-01-04T09:07:10;8.10;;;2.47;;
25091;SDS011;13082;52.374;4.946;2023-01-04T09:09:36;6.33;;;2.50;;
25091;SDS011;13082;52.374;4.946;2023-01-04T09:12:01;12.03;;;2.80;;
25091;SDS011;13082;52.374;4.946;2023-01-04T09:14:27;19.80;;;2.87;;
25091;SDS011;13082;52.374;4.946;2023-01-04T09:16:53;7.93;;;3.13;;
25091;SDS011;13082;52.374;4.946;2023-01-04T09:19:18;14.57;;;2.27;;
25091;SDS011;13082;52.374;4.946;2023-01-04T09:21:44;7.23;;;2.23;;
25091;SDS011;13082;52.374;4.946;2023-01-04T09:24:10;9.53;;;2.33;;
25091;SDS011;13082;52.374;4.946;2023-01-04T09:26:35;8.53;;;2.47;;
25091;SDS011;13082;52.374;4.946;2023-01-04T09:29:01;21.03;;;3.23;;
25091;SDS011;13082;52.374;4.946;2023-01-04T09:31:28;13.33;;;2.80;;
25091;SDS011;13082;52.374;4.946;2023-01-04T09:33:54;14.30;;;3.27;;
25091;SDS011;13082;52.374;4.946;2023-01-04T09:36:21;12.77;;;2.60;;
25091;SDS011;13082;52.374;4.946;2023-01-04T09:38:48;11.10;;;2.57;;
25091;SDS011;13082;52.374;4.946;2023-01-04T09:41:28;11.03;;;2.97;;
25091;SDS011;13082;52.374;4.946;2023-01-04T09:49:38;14.43;;;3.47;;
25091;SDS011;13082;52.374;4.946;2023-01-04T09:54:49;22.90;;;3.67;;
25091;SDS011;13082;52.374;4.946;2023-01-04T09:57:27;20.23;;;3.37;;
25091;SDS011;13082;52.374;4.946;2023-01-04T09:59:56;14.13;;;3.37;;
25091;SDS011;13082;52.374;4.946;2023-01-04T10:02:45;21.40;;;3.50;;
25091;SDS011;13082;52.374;4.946;2023-01-04T10:05:27;9.93;;;2.90;;
25091;SDS011;13082;52.374;4.946;2023-01-04T10:07:55;21.30;;;3.77;;
25091;SDS011;13082;52.374;4.946;2023-01-04T10:10:37;19.07;;;3.57;;
25091;SDS011;13082;52.374;4.946;2023-01-04T10:13:19;15.90;;;3.60;;
25091;SDS011;13082;52.374;4.946;2023-01-04T10:19:11;17.30;;;3.57;;
25091;SDS011;13082;52.374;4.946;2023-01-04T10:22:05;14.67;;;3.27;;
25091;SDS011;13082;52.374;4.946;2023-01-04T10:24:59;17.20;;;3.50;;
25091;SDS011;13082;52.374;4.946;2023-01-04T10:27:51;14.70;;;3.10;;
25091;SDS011;13082;52.374;4.946;2023-01-04T10:33:14;15.83;;;2.93;;
25091;SDS011;13082;52.374;4.946;2023-01-04T10:35:52;12.10;;;2.70;;
25091;SDS011;13082;52.374;4.946;2023-01-04T10:38:29;12.17;;;3.30;;
25091;SDS011;13082;52.374;4.946;2023-01-04T10:41:01;6.50;;;1.80;;
25091;SDS011;13082;52.374;4.946;2023-01-04T10:43:37;5.77;;;1.63;;
25091;SDS011;13082;52.374;4.946;2023-01-04T10:46:36;12.53;;;2.53;;
25091;SDS011;13082;52.374;4.946;2023-01-04T10:51:54;12.90;;;1.77;;
25091;SDS011;13082;52.374;4.946;2023-01-04T10:54:37;6.93;;;2.07;;
25091;SDS011;13082;52.374;4.946;2023-01-04T11:00:29;5.13;;;1.40;;
25091;SDS011;13082;52.374;4.946;2023-01-04T11:06:22;6.73;;;1.63;;
25091;SDS011;13082;52.374;4.946;2023-01-04T11:11:19;8.80;;;1.80;;
25091;SDS011;13082;52.374;4.946;2023-01-04T11:13:54;7.73;;;1.80;;
25091;SDS011;13082;52.374;4.946;2023-01-04T11:16:20;4.93;;;1.40;;
25091;SDS011;13082;52.374;4.946;2023-01-04T11:18:45;7.77;;;1.87;;
25091;SDS011;13082;52.374;4.946;2023-01-04T11:21:13;6.03;;;1.70;;
25091;SDS011;13082;52.374;4.946;2023-01-04T11:23:44;5.20;;;1.60;;
25091;SDS011;13082;52.374;4.946;2023-01-04T11:26:14;3.37;;;1.60;;
25091;SDS011;13082;52.374;4.946;2023-01-04T11:31:35;6.20;;;1.87;;
25091;SDS011;13082;52.374;4.946;2023-01-04T11:34:07;6.93;;;1.70;;
25091;SDS011;13082;52.374;4.946;2023-01-04T11:36:34;9.97;;;2.30;;
25091;SDS011;13082;52.374;4.946;2023-01-04T11:39:04;4.70;;;1.83;;
25091;SDS011;13082;52.374;4.946;2023-01-04T11:41:31;8.07;;;2.23;;
25091;SDS011;13082;52.374;4.946;2023-01-04T11:44:04;4.50;;;1.77;;
25091;SDS011;13082;52.374;4.946;2023-01-04T11:46:31;10.93;;;2.77;;
25091;SDS011;13082;52.374;4.946;2023-01-04T11:48:58;12.73;;;2.57;;
25091;SDS011;13082;52.374;4.946;2023-01-04T11:51:32;9.87;;;2.30;;
25091;SDS011;13082;52.374;4.946;2023-01-04T11:56:38;9.23;;;2.30;;
25091;SDS011;13082;52.374;4.946;2023-01-04T11:59:20;4.70;;;2.30;;
25091;SDS011;13082;52.374;4.946;2023-01-04T12:01:50;10.40;;;2.50;;
25091;SDS011;13082;52.374;4.946;2023-01-04T12:04:21;7.90;;;2.00;;
25091;SDS011;13082;52.374;4.946;2023-01-04T12:06:49;8.57;;;2.03;;
25091;SDS011;13082;52.374;4.946;2023-01-04T12:09:16;9.10;;;2.20;;
25091;SDS011;13082;52.374;4.946;2023-01-04T12:11:47;11.07;;;2.27;;
25091;SDS011;13082;52.374;4.946;2023-01-04T12:14:19;8.93;;;2.67;;
25091;SDS011;13082;52.374;4.946;2023-01-04T12:16:50;11.20;;;2.13;;
25091;SDS011;13082;52.374;4.946;2023-01-04T12:19:20;9.90;;;3.00;;
25091;SDS011;13082;52.374;4.946;2023-01-04T12:21:48;8.43;;;2.13;;
25091;SDS011;13082;52.374;4.946;2023-01-04T12:24:18;9.13;;;2.30;;
25091;SDS011;13082;52.374;4.946;2023-01-04T12:26:50;7.63;;;2.47;;
25091;SDS011;13082;52.374;4.946;2023-01-04T12:31:51;6.63;;;2.23;;
25091;SDS011;13082;52.374;4.946;2023-01-04T12:36:53;10.77;;;3.10;;
25091;SDS011;13082;52.374;4.946;2023-01-04T12:54:58;11.27;;;2.37;;
25091;SDS011;13082;52.374;4.946;2023-01-04T12:57:32;8.50;;;2.13;;
25091;SDS011;13082;52.374;4.946;2023-01-04T13:02:26;11.37;;;2.83;;
25091;SDS011;13082;52.374;4.946;2023-01-04T13:05:00;13.27;;;2.23;;
25091;SDS011;13082;52.374;4.946;2023-01-04T13:21:08;8.47;;;2.20;;
25091;SDS011;13082;52.374;4.946;2023-01-04T13:23:37;7.13;;;2.03;;
25091;SDS011;13082;52.374;4.946;2023-01-04T13:29:09;8.83;;;2.20;;
25091;SDS011;13082;52.374;4.946;2023-01-04T13:31:39;5.87;;;1.77;;
25091;SDS011;13082;52.374;4.946;2023-01-04T13:34:23;6.70;;;2.37;;
25091;SDS011;13082;52.374;4.946;2023-01-04T13:36:57;8.60;;;2.27;;
25091;SDS011;13082;52.374;4.946;2023-01-04T13:39:38;8.03;;;2.30;;
25091;SDS011;13082;52.374;4.946;2023-01-04T13:42:15;7.67;;;1.90;;
25091;SDS011;13082;52.374;4.946;2023-01-04T13:47:51;5.60;;;2.00;;
25091;SDS011;13082;52.374;4.946;2023-01-04T13:53:18;8.83;;;2.30;;
25091;SDS011;13082;52.374;4.946;2023-01-04T13:55:48;10.80;;;2.00;;
25091;SDS011;13082;52.374;4.946;2023-01-04T13:58:34;8.73;;;2.63;;
25091;SDS011;13082;52.374;4.946;2023-01-04T14:01:01;7.13;;;2.37;;
25091;SDS011;13082;52.374;4.946;2023-01-04T14:03:32;8.33;;;2.63;;
25091;SDS011;13082;52.374;4.946;2023-01-04T14:06:09;6.37;;;1.77;;
25091;SDS011;13082;52.374;4.946;2023-01-04T14:11:55;6.40;;;1.90;;
25091;SDS011;13082;52.374;4.946;2023-01-04T14:19:38;9.90;;;3.00;;
25091;SDS011;13082;52.374;4.946;2023-01-04T14:24:52;12.63;;;2.60;;
25091;SDS011;13082;52.374;4.946;2023-01-04T14:27:30;6.93;;;2.17;;
25091;SDS011;13082;52.374;4.946;2023-01-04T14:29:57;11.10;;;2.30;;
25091;SDS011;13082;52.374;4.946;2023-01-04T14:32:23;10.10;;;2.63;;
25091;SDS011;13082;52.374;4.946;2023-01-04T14:34:49;9.00;;;3.07;;
25091;SDS011;13082;52.374;4.946;2023-01-04T14:37:15;12.20;;;2.77;;
25091;SDS011;13082;52.374;4.946;2023-01-04T14:39:41;11.07;;;2.33;;
25091;SDS011;13082;52.374;4.946;2023-01-04T14:42:22;6.50;;;2.00;;
25091;SDS011;13082;52.374;4.946;2023-01-04T14:44:50;7.83;;;1.90;;
25091;SDS011;13082;52.374;4.946;2023-01-04T14:47:15;7.57;;;2.23;;
25091;SDS011;13082;52.374;4.946;2023-01-04T14:49:41;10.67;;;2.47;;
25091;SDS011;13082;52.374;4.946;2023-01-04T14:52:11;9.13;;;2.33;;
25091;SDS011;13082;52.374;4.946;2023-01-04T14:54:46;11.40;;;3.30;;
25091;SDS011;13082;52.374;4.946;2023-01-04T14:57:11;8.80;;;3.40;;
25091;SDS011;13082;52.374;4.946;2023-01-04T14:59:38;12.23;;;2.83;;
25091;SDS011;13082;52.374;4.946;2023-01-04T15:02:04;13.00;;;2.63;;
25091;SDS011;13082;52.374;4.946;2023-01-04T15:04:30;7.87;;;2.67;;
25091;SDS011;13082;52.374;4.946;2023-01-04T15:06:57;10.67;;;2.27;;
25091;SDS011;13082;52.374;4.946;2023-01-04T15:09:24;10.07;;;2.70;;
25091;SDS011;13082;52.374;4.946;2023-01-04T15:11:50;12.70;;;2.73;;
25091;SDS011;13082;52.374;4.946;2023-01-04T15:14:16;11.57;;;2.67;;
25091;SDS011;13082;52.374;4.946;2023-01-04T15:16:42;8.27;;;2.30;;
25091;SDS011;13082;52.374;4.946;2023-01-04T15:19:09;9.83;;;2.60;;
25091;SDS011;13082;52.374;4.946;2023-01-04T15:21:34;9.37;;;2.10;;
25091;SDS011;13082;52.374;4.946;2023-01-04T15:24:00;7.23;;;2.37;;
25091;SDS011;13082;52.374;4.946;2023-01-04T15:26:26;7.10;;;2.30;;
25091;SDS011;13082;52.374;4.946;2023-01-04T15:28:52;13.53;;;3.50;;
25091;SDS011;13082;52.374;4.946;2023-01-04T15:31:17;10.63;;;3.20;;
25091;SDS011;13082;52.374;4.946;2023-01-04T15:33:43;12.57;;;2.67;;
25091;SDS011;13082;52.374;4.946;2023-01-04T15:36:13;10.23;;;3.20;;
25091;SDS011;13082;52.374;4.946;2023-01-04T15:38:40;12.87;;;2.87;;
25091;SDS011;13082;52.374;4.946;2023-01-04T15:41:07;11.83;;;2.80;;
25091;SDS011;13082;52.374;4.946;2023-01-04T15:43:58;9.17;;;2.83;;
25091;SDS011;13082;52.374;4.946;2023-01-04T15:46:24;9.77;;;2.83;;
25091;SDS011;13082;52.374;4.946;2023-01-04T15:48:49;10.93;;;3.37;;
25091;SDS011;13082;52.374;4.946;2023-01-04T15:51:15;8.97;;;2.37;;
25091;SDS011;13082;52.374;4.946;2023-01-04T15:53:41;13.10;;;2.90;;
25091;SDS011;13082;52.374;4.946;2023-01-04T15:56:07;8.37;;;2.83;;
25091;SDS011;13082;52.374;4.946;2023-01-04T15:58:34;8.40;;;3.13;;
25091;SDS011;13082;52.374;4.946;2023-01-04T16:01:10;12.60;;;3.43;;
25091;SDS011;13082;52.374;4.946;2023-01-04T16:03:38;10.50;;;2.63;;
25091;SDS011;13082;52.374;4.946;2023-01-04T16:06:08;13.73;;;3.20;;
25091;SDS011;13082;52.374;4.946;2023-01-04T16:08:36;13.60;;;2.87;;
25091;SDS011;13082;52.374;4.946;2023-01-04T16:11:12;13.63;;;3.27;;
25091;SDS011;13082;52.374;4.946;2023-01-04T16:13:39;8.87;;;3.47;;
25091;SDS011;13082;52.374;4.946;2023-01-04T16:16:06;10.87;;;3.03;;
25091;SDS011;13082;52.374;4.946;2023-01-04T16:18:33;11.70;;;2.80;;
25091;SDS011;13082;52.374;4.946;2023-01-04T16:20:59;13.13;;;3.17;;
25091;SDS011;13082;52.374;4.946;2023-01-04T16:23:25;8.03;;;3.10;;
25091;SDS011;13082;52.374;4.946;2023-01-04T16:26:01;13.47;;;3.60;;
25091;SDS011;13082;52.374;4.946;2023-01-04T16:28:31;11.60;;;3.93;;
25091;SDS011;13082;52.374;4.946;2023-01-04T16:30:56;15.23;;;3.87;;
25091;SDS011;13082;52.374;4.946;2023-01-04T16:33:22;16.80;;;3.50;;
25091;SDS011;13082;52.374;4.946;2023-01-04T16:35:48;14.03;;;3.33;;
25091;SDS011;13082;52.374;4.946;2023-01-04T16:38:13;11.60;;;2.73;;
25091;SDS011;13082;52.374;4.946;2023-01-04T16:40:39;13.60;;;3.03;;
25091;SDS011;13082;52.374;4.946;2023-01-04T16:43:04;19.00;;;3.93;;
25091;SDS011;13082;52.374;4.946;2023-01-04T16:45:31;16.97;;;3.50;;
25091;SDS011;13082;52.374;4.946;2023-01-04T16:47:57;11.03;;;3.07;;
25091;SDS011;13082;52.374;4.946;2023-01-04T16:50:23;17.93;;;3.07;;
25091;SDS011;13082;52.374;4.946;2023-01-04T16:52:48;8.57;;;2.57;;
25091;SDS011;13082;52.374;4.946;2023-01-04T16:55:14;11.00;;;3.03;;
25091;SDS011;13082;52.374;4.946;2023-01-04T16:57:40;14.77;;;3.60;;
25091;SDS011;13082;52.374;4.946;2023-01-04T17:00:05;12.53;;;4.03;;
25091;SDS011;13082;52.374;4.946;2023-01-04T17:02:31;12.73;;;3.30;;
25091;SDS011;13082;52.374;4.946;2023-01-04T17:04:57;12.27;;;3.53;;
25091;SDS011;13082;52.374;4.946;2023-01-04T17:07:24;11.60;;;3.13;;
25091;SDS011;13082;52.374;4.946;2023-01-04T17:09:56;13.37;;;3.97;;
25091;SDS011;13082;52.374;4.946;2023-01-04T17:12:23;11.23;;;3.07;;
25091;SDS011;13082;52.374;4.946;2023-01-04T17:14:48;14.57;;;3.63;;
25091;SDS011;13082;52.374;4.946;2023-01-04T17:17:15;17.10;;;4.07;;